createdAt,value
2019-05-28T02:28:33.585Z,22.30
2019-05-28T02:31:04.474Z,26.90
2019-05-28T02:33:36.644Z,26.53
2019-05-28T02:36:07.521Z,29.50
2019-05-28T02:38:38.393Z,24.33
2019-05-28T02:41:24.554Z,24.60
2019-05-28T02:43:57.372Z,23.47
2019-05-28T02:46:28.228Z,20.20
2019-05-28T02:49:00.429Z,21.43
2019-05-28T02:51:32.270Z,20.77
2019-05-28T02:54:03.331Z,21.00
2019-05-28T02:56:34.020Z,19.40
2019-05-28T02:59:05.033Z,19.20
2019-05-28T03:01:43.899Z,17.83
2019-05-28T03:04:11.463Z,17.27
2019-05-28T03:06:45.035Z,17.17
2019-05-28T03:09:17.578Z,17.33
2019-05-28T03:11:48.393Z,19.00
2019-05-28T03:14:19.586Z,20.00
2019-05-28T03:16:53.256Z,12.43
2019-05-28T03:19:25.936Z,12.63
2019-05-28T03:22:00.055Z,11.00
2019-05-28T03:24:32.165Z,13.00
2019-05-28T03:27:02.837Z,10.90
2019-05-28T03:29:34.165Z,9.90
2019-05-28T03:32:07.937Z,9.50
2019-05-28T03:34:37.814Z,8.70
2019-05-28T03:37:11.133Z,8.73
2019-05-28T03:39:44.775Z,8.87
2019-05-28T03:42:16.803Z,10.73
2019-05-28T03:44:59.750Z,7.87
2019-05-28T03:47:30.444Z,7.60
2019-05-28T03:50:01.477Z,7.93
2019-05-28T03:52:35.193Z,10.53
2019-05-28T03:55:06.123Z,7.77
2019-05-28T03:57:41.546Z,7.20
2019-05-28T04:00:13.966Z,7.67
2019-05-28T04:02:44.897Z,13.63
2019-05-28T04:05:16.865Z,7.30
2019-05-28T04:07:47.859Z,7.40
2019-05-28T04:10:19.803Z,11.10
2019-05-28T04:12:51.210Z,7.90
2019-05-28T04:15:22.258Z,9.60
2019-05-28T04:17:52.929Z,9.13
2019-05-28T04:20:23.725Z,9.77
2019-05-28T04:22:55.524Z,12.13
2019-05-28T04:25:27.365Z,8.30
2019-05-28T04:27:58.045Z,8.13
2019-05-28T04:30:33.861Z,7.63
2019-05-28T04:33:04.746Z,11.17
2019-05-28T04:35:35.886Z,8.10
2019-05-28T04:38:07.167Z,12.33
2019-05-28T04:40:39.365Z,7.90
2019-05-28T04:43:10.150Z,8.80
2019-05-28T04:45:41.021Z,8.37
2019-05-28T04:48:11.975Z,8.10
2019-05-28T04:50:42.609Z,9.17
2019-05-28T04:53:14.618Z,9.70
2019-05-28T04:55:45.388Z,14.27
2019-05-28T04:58:16.115Z,7.80
2019-05-28T05:00:46.973Z,8.07
2019-05-28T05:03:17.580Z,8.03
2019-05-28T05:05:48.374Z,7.03
2019-05-28T05:08:19.092Z,13.10
2019-05-28T05:10:49.625Z,12.63
2019-05-28T05:13:20.359Z,9.00
2019-05-28T05:15:51.224Z,9.00
2019-05-28T05:18:23.160Z,14.43
2019-05-28T05:20:54.912Z,8.47
2019-05-28T05:23:26.027Z,8.43
2019-05-28T05:25:57.028Z,8.80
2019-05-28T05:28:27.753Z,10.30
2019-05-28T05:30:58.968Z,7.87
2019-05-28T05:33:29.676Z,9.53
2019-05-28T05:36:01.083Z,11.27
2019-05-28T05:38:32.190Z,9.00
2019-05-28T05:41:03.093Z,10.53
2019-05-28T05:43:33.900Z,12.43
2019-05-28T05:46:04.998Z,11.33
2019-05-28T05:48:35.970Z,7.83
2019-05-28T05:51:06.809Z,10.80
2019-05-28T05:53:37.560Z,7.90
2019-05-28T05:56:08.262Z,7.37
2019-05-28T05:58:39.062Z,7.57
2019-05-28T06:04:06.581Z,8.90
2019-05-28T06:07:03.427Z,7.63
2019-05-28T06:09:34.786Z,8.07
2019-05-28T06:12:10.457Z,10.63
2019-05-28T06:14:43.558Z,12.23
2019-05-28T06:17:15.148Z,9.03
2019-05-28T06:19:46.186Z,7.20
2019-05-28T06:22:19.347Z,7.30
2019-05-28T06:24:50.922Z,6.20
2019-05-28T06:27:24.548Z,7.30
2019-05-28T06:29:59.766Z,7.27
2019-05-28T06:32:33.855Z,9.40
2019-05-28T06:35:05.289Z,7.73
2019-05-28T06:37:38.086Z,7.73
2019-05-28T06:40:19.579Z,10.30
2019-05-28T06:42:42.543Z,8.23
2019-05-28T06:45:14.364Z,7.53
2019-05-28T06:47:45.788Z,8.37
2019-05-28T06:50:17.851Z,10.53
2019-05-28T06:52:51.414Z,8.27
2019-05-28T06:55:22.887Z,8.97
2019-05-28T06:58:38.771Z,7.17
2019-05-28T07:00:58.245Z,7.63
2019-05-28T07:03:35.603Z,7.13
2019-05-28T07:06:24.754Z,6.87
2019-05-28T07:09:12.373Z,6.80
2019-05-28T07:11:43.344Z,9.83
2019-05-28T07:14:22.097Z,6.90
2019-05-28T07:16:53.986Z,17.93
2019-05-28T07:19:25.572Z,12.27
2019-05-28T07:21:56.673Z,13.07
2019-05-28T07:24:28.033Z,13.00
2019-05-28T07:27:14.014Z,11.10
2019-05-28T07:29:45.499Z,7.07
2019-05-28T07:32:16.689Z,10.47
2019-05-28T07:35:04.316Z,14.77
2019-05-28T07:37:36.081Z,10.53
2019-05-28T07:40:29.880Z,9.00
2019-05-28T07:42:49.305Z,15.97
2019-05-28T07:45:21.254Z,14.10
2019-05-28T07:47:52.818Z,7.90
2019-05-28T07:50:23.791Z,12.97
2019-05-28T07:52:58.075Z,8.13
2019-05-28T07:55:29.656Z,8.90
2019-05-28T07:58:00.765Z,13.40
2019-05-28T08:00:39.499Z,10.70
2019-05-28T08:03:20.565Z,11.80
2019-05-28T08:05:51.559Z,10.53
2019-05-28T08:08:24.239Z,10.60
2019-05-28T08:10:56.962Z,10.17
2019-05-28T08:13:40.360Z,10.87
2019-05-28T08:16:17.594Z,9.13
2019-05-28T08:18:33.068Z,21.10
2019-05-28T08:21:03.945Z,9.13
2019-05-28T08:23:34.830Z,18.17
2019-05-28T08:26:06.944Z,17.43
2019-05-28T08:28:37.549Z,18.10
2019-05-28T08:31:16.231Z,8.33
2019-05-28T08:33:40.880Z,8.53
2019-05-28T08:36:12.910Z,8.67
2019-05-28T08:38:43.813Z,17.37
2019-05-28T08:41:14.686Z,16.37
2019-05-28T08:43:45.377Z,9.63
2019-05-28T08:46:16.433Z,9.70
2019-05-28T08:48:47.400Z,8.30
2019-05-28T08:51:18.297Z,14.77
2019-05-28T08:53:49.003Z,12.90
2019-05-28T08:56:20.025Z,7.90
2019-05-28T08:58:52.148Z,8.53
2019-05-28T09:01:22.837Z,10.70
2019-05-28T09:03:54.866Z,10.40
2019-05-28T09:06:27.284Z,10.10
2019-05-28T09:08:58.157Z,12.60
2019-05-28T09:11:28.939Z,12.20
2019-05-28T09:13:59.849Z,12.93
2019-05-28T09:16:50.620Z,15.40
2019-05-28T09:19:21.601Z,12.10
2019-05-28T09:21:54.276Z,16.80
2019-05-28T09:24:27.778Z,8.63
2019-05-28T09:26:59.621Z,9.83
2019-05-28T09:29:30.285Z,8.03
2019-05-28T09:32:01.317Z,8.43
2019-05-28T09:34:31.934Z,11.27
2019-05-28T09:37:03.093Z,23.50
2019-05-28T09:39:34.970Z,10.80
2019-05-28T09:42:05.990Z,12.27
2019-05-28T09:44:37.000Z,16.07
2019-05-28T09:47:07.880Z,7.83
2019-05-28T09:49:39.966Z,23.93
2019-05-28T09:52:12.627Z,10.07
2019-05-28T09:54:43.455Z,8.23
2019-05-28T09:57:13.875Z,11.13
2019-05-28T09:59:44.692Z,8.93
2019-05-28T10:02:15.531Z,14.90
2019-05-28T10:04:49.965Z,14.10
2019-05-28T10:07:19.171Z,9.87
2019-05-28T10:09:49.674Z,10.40
2019-05-28T10:12:20.814Z,11.83
2019-05-28T10:14:51.948Z,11.97
2019-05-28T10:17:22.646Z,10.67
2019-05-28T10:19:53.513Z,9.13
2019-05-28T10:22:25.439Z,8.00
2019-05-28T10:24:56.483Z,8.10
2019-05-28T10:27:28.975Z,11.77
2019-05-28T10:29:59.875Z,11.63
2019-05-28T10:32:30.715Z,10.00
2019-05-28T10:35:04.134Z,11.00
2019-05-28T10:37:35.043Z,11.83
2019-05-28T10:40:08.228Z,8.40
2019-05-28T10:42:39.168Z,15.20
2019-05-28T10:45:11.978Z,11.53
2019-05-28T10:47:42.812Z,9.73
2019-05-28T10:50:14.021Z,12.10
2019-05-28T10:52:44.731Z,10.90
2019-05-28T10:55:16.548Z,14.03
2019-05-28T10:57:47.167Z,11.60
2019-05-28T11:00:18.715Z,13.87
2019-05-28T11:02:50.997Z,9.40
2019-05-28T11:05:23.255Z,12.33
2019-05-28T11:07:53.891Z,14.03
2019-05-28T11:10:27.161Z,9.20
2019-05-28T11:12:58.738Z,14.60
2019-05-28T11:15:30.524Z,8.80
2019-05-28T11:18:01.493Z,13.13
2019-05-28T11:20:33.289Z,12.53
2019-05-28T11:23:04.238Z,13.30
2019-05-28T11:25:35.300Z,13.90
2019-05-28T11:28:07.178Z,12.83
2019-05-28T11:30:37.600Z,12.73
2019-05-28T11:33:08.492Z,10.87
2019-05-28T11:35:39.457Z,11.07
2019-05-28T11:38:18.442Z,12.10
2019-05-28T11:40:49.243Z,11.67
2019-05-28T11:43:19.911Z,16.23
2019-05-28T11:45:52.163Z,10.70
2019-05-28T11:48:24.230Z,14.00
2019-05-28T11:50:54.982Z,12.20
2019-05-28T11:53:25.552Z,16.17
2019-05-28T11:55:57.661Z,13.23
2019-05-28T11:58:29.684Z,10.70
2019-05-28T12:01:00.447Z,15.20
2019-05-28T12:03:31.261Z,17.90
2019-05-28T12:06:05.910Z,17.97
2019-05-28T12:08:36.632Z,13.60
2019-05-28T12:11:07.307Z,15.83
2019-05-28T12:13:38.391Z,20.40
2019-05-28T12:16:08.970Z,17.10
2019-05-28T12:18:39.676Z,13.23
2019-05-28T12:21:10.551Z,15.00
2019-05-28T12:23:41.123Z,16.53
2019-05-28T12:26:13.134Z,17.10
2019-05-28T12:28:43.927Z,17.73
2019-05-28T12:31:15.854Z,14.73
2019-05-28T12:33:46.502Z,15.03
2019-05-28T12:36:17.253Z,11.10
2019-05-28T12:38:48.093Z,15.13
2019-05-28T12:41:20.008Z,13.60
2019-05-28T12:43:50.966Z,13.67
2019-05-28T12:46:23.818Z,17.97
2019-05-28T12:48:54.609Z,13.93
2019-05-28T12:51:26.912Z,10.53
2019-05-28T12:53:57.575Z,11.90
2019-05-28T12:56:29.566Z,11.43
2019-05-28T12:59:00.242Z,14.03
2019-05-28T13:01:30.788Z,26.77
2019-05-28T13:04:02.530Z,18.10
2019-05-28T13:06:33.510Z,10.70
2019-05-28T13:09:07.339Z,9.87
2019-05-28T13:11:37.936Z,12.50
2019-05-28T13:14:08.712Z,9.57
2019-05-28T13:16:39.515Z,9.57
2019-05-28T13:19:10.263Z,11.70
2019-05-28T13:21:42.843Z,13.67
2019-05-28T13:24:13.778Z,10.83
2019-05-28T13:26:44.491Z,13.43
2019-05-28T13:29:15.385Z,9.33
2019-05-28T13:31:47.088Z,14.73
2019-05-28T13:34:17.642Z,9.27
2019-05-28T13:36:48.877Z,14.87
2019-05-28T13:39:19.532Z,12.23
2019-05-28T13:41:50.487Z,14.13
2019-05-28T13:44:21.387Z,8.93
2019-05-28T13:46:52.043Z,17.23
2019-05-28T13:49:22.723Z,17.53
2019-05-28T13:52:10.758Z,9.73
2019-05-28T13:54:26.255Z,11.43
2019-05-28T13:56:57.087Z,14.80
2019-05-28T13:59:28.125Z,12.90
2019-05-28T14:01:59.051Z,9.40
2019-05-28T14:04:30.877Z,9.80
2019-05-28T14:07:01.795Z,9.30
2019-05-28T14:09:32.808Z,16.83
2019-05-28T14:12:05.171Z,15.27
2019-05-28T14:14:36.011Z,11.33
2019-05-28T14:17:06.787Z,16.50
2019-05-28T14:19:37.615Z,10.23
2019-05-28T14:22:08.408Z,16.20
2019-05-28T14:24:39.079Z,10.90
2019-05-28T14:27:15.990Z,21.90
2019-05-28T14:29:46.767Z,14.87
2019-05-28T14:32:18.680Z,12.17
2019-05-28T14:34:52.408Z,16.43
2019-05-28T14:37:22.384Z,13.50
2019-05-28T14:39:53.289Z,14.80
2019-05-28T14:42:23.787Z,22.10
2019-05-28T14:44:55.380Z,19.90
2019-05-28T14:47:26.291Z,21.10
2019-05-28T14:49:56.899Z,16.70
2019-05-28T14:52:27.681Z,15.07
2019-05-28T14:54:58.496Z,15.93
2019-05-28T14:57:30.595Z,16.60
2019-05-28T15:00:03.585Z,12.97
2019-05-28T15:02:34.737Z,16.43
2019-05-28T15:05:05.986Z,13.90
2019-05-28T15:07:37.246Z,13.63
2019-05-28T15:10:08.958Z,10.87
2019-05-28T15:12:39.739Z,20.07
2019-05-28T15:15:12.705Z,11.57
2019-05-28T15:17:43.315Z,13.50
2019-05-28T15:20:14.463Z,14.20
2019-05-28T15:22:45.500Z,13.00
2019-05-28T15:25:16.496Z,14.37
2019-05-28T15:27:47.162Z,11.73
2019-05-28T15:30:17.949Z,12.40
2019-05-28T15:32:48.428Z,16.43
2019-05-28T15:35:18.971Z,24.67
2019-05-28T15:37:49.437Z,13.50
2019-05-28T15:40:20.106Z,13.20
2019-05-28T15:43:05.165Z,12.20
2019-05-28T15:45:24.115Z,13.67
2019-05-28T15:47:54.616Z,19.90
2019-05-28T15:50:25.562Z,20.70
2019-05-28T15:52:58.796Z,19.07
2019-05-28T15:55:29.403Z,21.70
2019-05-28T15:58:00.677Z,32.90
2019-05-28T16:00:31.504Z,19.13
2019-05-28T16:03:02.313Z,23.57
2019-05-28T16:05:33.240Z,17.70
2019-05-28T16:08:03.859Z,20.00
2019-05-28T16:10:34.744Z,22.30
2019-05-28T16:13:05.874Z,18.47
2019-05-28T16:15:36.634Z,19.80
2019-05-28T16:18:07.234Z,22.10
2019-05-28T16:20:38.102Z,22.90
2019-05-28T16:23:08.846Z,22.07
2019-05-28T16:25:41.583Z,18.87
2019-05-28T16:28:12.061Z,20.30
2019-05-28T16:30:43.077Z,20.57
2019-05-28T16:33:13.888Z,25.87
2019-05-28T16:35:44.755Z,16.90
2019-05-28T16:38:15.683Z,20.13
2019-05-28T16:40:46.555Z,22.33
2019-05-28T16:43:17.556Z,23.70
2019-05-28T16:45:48.532Z,30.93
2019-05-28T16:48:19.388Z,29.60
2019-05-28T16:50:50.197Z,24.67
2019-05-28T16:53:21.487Z,24.53
2019-05-28T16:55:52.310Z,22.43
2019-05-28T16:58:23.409Z,24.93
2019-05-28T17:00:58.718Z,29.30
2019-05-28T17:03:27.859Z,35.90
2019-05-28T17:05:58.955Z,34.53
2019-05-28T17:08:29.781Z,30.10
2019-05-28T17:11:00.723Z,31.73
2019-05-28T17:13:32.944Z,39.50
2019-05-28T17:16:03.784Z,34.17
2019-05-28T17:18:34.556Z,32.53
2019-05-28T17:21:06.459Z,39.60
2019-05-28T17:23:37.358Z,35.17
2019-05-28T17:26:08.299Z,41.07
2019-05-28T17:28:39.094Z,36.30
2019-05-28T17:31:09.727Z,37.10
2019-05-28T17:33:40.579Z,34.90
2019-05-28T17:36:11.671Z,33.77
2019-05-28T17:38:42.488Z,37.97
2019-05-28T17:41:13.142Z,32.80
2019-05-28T17:43:43.727Z,40.10
2019-05-28T17:46:15.165Z,34.20
2019-05-28T17:48:45.595Z,34.57
2019-05-28T17:51:16.029Z,33.90
2019-05-28T17:53:46.649Z,37.97
2019-05-28T17:56:17.026Z,51.07
2019-05-28T17:58:47.571Z,44.43
2019-05-28T18:01:18.416Z,44.03
2019-05-28T18:03:49.197Z,37.17
2019-05-28T18:06:19.991Z,32.60
2019-05-28T18:08:51.079Z,35.03
2019-05-28T18:11:22.715Z,35.77
2019-05-28T18:13:53.458Z,47.00
2019-05-28T18:16:24.471Z,40.77
2019-05-28T18:18:55.350Z,47.77
2019-05-28T18:21:26.454Z,39.00
2019-05-28T18:23:57.248Z,38.53
2019-05-28T18:26:28.397Z,31.03
2019-05-28T18:28:59.233Z,33.07
2019-05-28T18:31:30.047Z,32.90
2019-05-28T18:34:03.117Z,36.67
2019-05-28T18:36:34.731Z,42.37
2019-05-28T18:39:06.843Z,33.50
2019-05-28T18:41:37.739Z,40.50
2019-05-28T18:44:09.952Z,32.20
2019-05-28T18:46:40.711Z,34.60
2019-05-28T18:49:11.425Z,38.20
2019-05-28T18:51:42.118Z,36.77
2019-05-28T18:54:13.086Z,43.90
2019-05-28T18:56:43.783Z,41.87
2019-05-28T18:59:14.733Z,37.77
2019-05-28T19:01:45.512Z,41.13
2019-05-28T19:04:16.283Z,32.87
2019-05-28T19:06:47.130Z,41.10
2019-05-28T19:09:18.345Z,39.30
2019-05-28T19:11:49.031Z,36.67
2019-05-28T19:14:21.204Z,42.30
2019-05-28T19:16:52.350Z,51.10
2019-05-28T19:19:22.948Z,48.53
2019-05-28T19:21:54.342Z,45.53
2019-05-28T19:24:25.181Z,41.33
2019-05-28T19:26:55.890Z,48.73
2019-05-28T19:29:26.612Z,47.13
2019-05-28T19:31:57.858Z,48.67
2019-05-28T19:34:34.131Z,41.50
2019-05-28T19:37:07.385Z,46.33
2019-05-28T19:39:39.904Z,51.37
2019-05-28T19:42:11.816Z,47.23
2019-05-28T19:45:12.286Z,42.93
2019-05-28T19:47:46.020Z,40.77
2019-05-28T19:50:20.891Z,47.43
2019-05-28T19:52:56.473Z,48.57
2019-05-28T19:55:25.269Z,46.73
2019-05-28T19:57:56.097Z,48.63
2019-05-28T20:00:27.254Z,53.67
2019-05-28T20:02:58.331Z,53.37
2019-05-28T20:05:29.502Z,42.67
2019-05-28T20:08:00.499Z,58.10
2019-05-28T20:10:31.656Z,54.53
2019-05-28T20:13:02.666Z,46.03
2019-05-28T20:15:34.752Z,57.90
2019-05-28T20:18:06.622Z,55.10
2019-05-28T20:20:37.641Z,58.60
2019-05-28T20:23:09.549Z,51.03
2019-05-28T20:25:46.711Z,60.23
2019-05-28T20:28:17.751Z,40.03
2019-05-28T20:31:04.068Z,45.60
2019-05-28T20:33:38.911Z,41.83
2019-05-28T20:36:17.540Z,48.60
2019-05-28T20:38:48.636Z,38.90
2019-05-28T20:41:20.042Z,37.33
2019-05-28T20:43:50.913Z,41.47
2019-05-28T20:46:21.418Z,44.50
2019-05-28T20:48:51.896Z,37.90
2019-05-28T20:51:22.595Z,42.27
2019-05-28T20:53:53.579Z,42.77
2019-05-28T20:56:24.650Z,36.60
2019-05-28T20:58:55.944Z,44.73
2019-05-28T21:01:26.727Z,43.57
2019-05-28T21:03:58.234Z,36.33
2019-05-28T21:06:28.823Z,40.17
2019-05-28T21:08:59.287Z,44.87
2019-05-28T21:11:29.673Z,44.23
2019-05-28T21:14:00.711Z,54.07
2019-05-28T21:16:31.972Z,45.73
2019-05-28T21:19:02.626Z,45.13
2019-05-28T21:21:34.525Z,47.73
2019-05-28T21:24:05.476Z,60.70
2019-05-28T21:26:36.333Z,42.80
2019-05-28T21:29:08.162Z,53.00
2019-05-28T21:31:38.806Z,50.50
2019-05-28T21:34:10.151Z,51.77
2019-05-28T21:36:40.944Z,54.10
2019-05-28T21:39:11.941Z,43.73
2019-05-28T21:41:43.801Z,47.90
2019-05-28T21:44:14.456Z,45.40
2019-05-28T21:46:45.190Z,52.97
2019-05-28T21:49:15.953Z,55.97
2019-05-28T21:51:46.513Z,53.50
2019-05-28T21:54:17.620Z,57.07
2019-05-28T21:56:48.690Z,57.50
2019-05-28T21:59:19.401Z,60.50
2019-05-28T22:01:50.422Z,53.57
2019-05-28T22:04:21.011Z,56.60
2019-05-28T22:06:52.802Z,51.77
2019-05-28T22:09:23.713Z,48.20
2019-05-28T22:11:56.192Z,55.10
2019-05-28T22:14:26.904Z,53.57
2019-05-28T22:17:00.948Z,43.13
2019-05-28T22:19:31.608Z,44.37
2019-05-28T22:22:02.712Z,38.70
2019-05-28T22:24:33.447Z,32.90
2019-05-28T22:27:04.588Z,37.57
2019-05-28T22:29:35.324Z,45.03
2019-05-28T22:32:07.080Z,35.60
2019-05-28T22:34:37.698Z,35.77
2019-05-28T22:37:08.718Z,45.33
2019-05-28T22:39:40.395Z,33.43
2019-05-28T22:42:11.368Z,36.30
2019-05-28T22:44:42.007Z,31.40
2019-05-28T22:47:12.721Z,35.53
2019-05-28T22:49:43.603Z,41.50
2019-05-28T22:52:14.428Z,32.90
2019-05-28T22:54:46.168Z,33.10
2019-05-28T22:57:18.433Z,38.27
2019-05-28T22:59:49.277Z,34.17
2019-05-28T23:02:21.034Z,44.50
2019-05-28T23:04:52.954Z,37.63
2019-05-28T23:07:23.741Z,34.97
2019-05-28T23:09:55.911Z,32.37
2019-05-28T23:12:26.625Z,33.00
2019-05-28T23:14:57.569Z,33.03
2019-05-28T23:17:28.583Z,35.63
2019-05-28T23:20:00.786Z,32.87
2019-05-28T23:22:31.643Z,33.53
2019-05-28T23:25:03.280Z,29.73
2019-05-28T23:27:34.364Z,33.57
2019-05-28T23:30:20.044Z,32.00
2019-05-28T23:32:38.548Z,33.90
2019-05-28T23:35:10.598Z,39.70
2019-05-28T23:37:41.555Z,34.20
2019-05-28T23:40:13.441Z,39.20
2019-05-28T23:42:44.140Z,37.87
2019-05-28T23:45:15.129Z,36.87
2019-05-28T23:47:45.829Z,39.07
2019-05-28T23:50:18.260Z,31.50
2019-05-28T23:52:50.468Z,39.23
2019-05-28T23:55:21.625Z,36.30
2019-05-28T23:57:52.482Z,33.07
